Julie — WCX8613 — position and weather

sailwx.info

Track history (hours):
 
Tides and Currents Weather Stations Pressure Air Temp Water Temp Dewpoint Dewpoint Depression Visibility Wind Speed Wind Dir Waves Ship Positions

Julie

Owner: PENN MARITIME INC, SEATTLE, WA. More information available from US FCC via Universal Licensing System and Coast Guard Vessel Documentation Center.

Last reported at 2016-Jan-30 04:21 UTC. Time now 2016-Feb-07 01:29 UTC.
Position N 29°51' W 093°58'.

Length 179 m; draft 9.5 m.

Type: Tow > 200 m length. MMSI: 368148000.

Date/timePositionNaut miles runAvg speedWind from/ knotsBaromVisibWave heightAir tempDewpointWater temp
2016-Jan-30 04:21N 29°51' W 093°58'0 0.0
2016-Jan-30 03:21N 29°51' W 093°58'0 0.0
2016-Jan-30 01:27N 29°51' W 093°58'0 0.0
2016-Jan-30 00:33N 29°51' W 093°58'19 2.3
2016-Jan-29 16:20N 29°35' W 093°46'1 1.6
2016-Jan-29 15:33N 29°35' W 093°45'0 0.0
2016-Jan-29 14:08N 29°35' W 093°45'0 0.0
2016-Jan-29 13:29N 29°35' W 093°45'0 0.0
2016-Jan-29 12:23N 29°35' W 093°45'0 0.0
2016-Jan-29 11:32N 29°35' W 093°45'0 0.0
2016-Jan-29 10:32N 29°35' W 093°45'0 0.0
2016-Jan-29 09:32N 29°35' W 093°45'0 0.0
2016-Jan-29 08:32N 29°35' W 093°45'0 0.0
2016-Jan-29 07:32N 29°35' W 093°45'0 0.0
2016-Jan-29 06:32N 29°35' W 093°45'2 2.4
2016-Jan-29 05:33N 29°33' W 093°44'9 9.2
2016-Jan-29 04:33N 29°24' W 093°40'1010.0
2016-Jan-29 03:33N 29°14' W 093°40'  
Track history (hours):
 
Tides and Currents Weather Stations Pressure Air Temp Water Temp Dewpoint Dewpoint Depression Visibility Wind Speed Wind Dir Waves Ship Positions

Julie

Owner: PENN MARITIME INC, SEATTLE, WA. More information available from US FCC via Universal Licensing System and Coast Guard Vessel Documentation Center.

Last reported at 2016-Jan-30 04:21 UTC. Time now 2016-Feb-07 01:29 UTC.
Position N 29°51' W 093°58'.

Length 179 m; draft 9.5 m.

Type: Tow > 200 m length. MMSI: 368148000.

Date/timePositionNaut miles runAvg speedWind from/ knotsBaromVisibWave heightAir tempDewpointWater temp
2016-Jan-30 04:21N 29°51' W 093°58'0 0.0
2016-Jan-30 03:21N 29°51' W 093°58'0 0.0
2016-Jan-30 01:27N 29°51' W 093°58'0 0.0
2016-Jan-30 00:33N 29°51' W 093°58'19 2.3
2016-Jan-29 16:20N 29°35' W 093°46'1 1.6
2016-Jan-29 15:33N 29°35' W 093°45'0 0.0
2016-Jan-29 14:08N 29°35' W 093°45'0 0.0
2016-Jan-29 13:29N 29°35' W 093°45'0 0.0
2016-Jan-29 12:23N 29°35' W 093°45'0 0.0
2016-Jan-29 11:32N 29°35' W 093°45'0 0.0
2016-Jan-29 10:32N 29°35' W 093°45'0 0.0
2016-Jan-29 09:32N 29°35' W 093°45'0 0.0
2016-Jan-29 08:32N 29°35' W 093°45'0 0.0
2016-Jan-29 07:32N 29°35' W 093°45'0 0.0
2016-Jan-29 06:32N 29°35' W 093°45'2 2.4
2016-Jan-29 05:33N 29°33' W 093°44'9 9.2
2016-Jan-29 04:33N 29°24' W 093°40'1010.0
2016-Jan-29 03:33N 29°14' W 093°40'  

Dump ship's entire track history